SCCY

Teniente Vidal Airport

Airport
ICAO code
SCCY
IATA Code
GXQ
Summary
ICAO Region
CARSAM
ICAO Territory
Location

Coyhaique, Aisen del General Carlos Ibanez del Campo

Serving
Coyhaique
Elevation
1020 ft
Coordinates
45° 35' 39" S , 72° 6' 22" W
KCC
Cfb
Metar
Observation
SCCY 131427Z 21004KT 2000 SN FEW010 OVC020 01/M01 Q0990
Station
Coyhaique
Date/Time
2022-08-13 14:27:00
Wind direction
210°
Wind speed
04 kts
Lowest cloud amount
few clouds
Temperature
1°C
Dew point
-1°C
Humidity
86%
QNH
990 hPa
Weather condition
n/a

Airport 4 km southwest of Coyhaique, Chile.

Climatology

Temperate oceanic climate (Köppen climate classification Cfb)

Runways

Designator Length Width Surface Rops
3/21 1546 30 ASP No/No

Airport map

Aerial View

SKYbrary Partners:

Safety knowledge contributed by: